createdAt,value
2017-09-08T00:00:16.022Z,91.19
2017-09-08T00:00:56.559Z,91.29
2017-09-08T00:01:37.100Z,91.15
2017-09-08T00:02:17.635Z,91.15
2017-09-08T00:02:58.179Z,91.34
2017-09-08T00:03:38.713Z,91.34
2017-09-08T00:04:19.248Z,91.82
2017-09-08T00:04:59.784Z,91.63
2017-09-08T00:05:40.327Z,91.72
2017-09-08T00:06:20.862Z,91.63
2017-09-08T00:07:01.396Z,91.82
2017-09-08T00:07:41.932Z,91.82
2017-09-08T00:08:22.473Z,91.82
2017-09-08T00:09:03.003Z,91.82
2017-09-08T00:09:43.532Z,91.63
2017-09-08T00:10:24.072Z,91.53
2017-09-08T00:11:04.609Z,91.63
2017-09-08T00:11:45.141Z,91.92
2017-09-08T00:12:25.670Z,91.53
2017-09-08T00:13:06.206Z,92.01
2017-09-08T00:13:46.747Z,91.63
2017-09-08T00:14:27.284Z,92.11
2017-09-08T00:15:07.820Z,91.82
2017-09-08T00:15:48.342Z,91.92
2017-09-08T00:16:28.871Z,92.01
2017-09-08T00:17:09.387Z,92.21
2017-09-08T00:17:49.927Z,91.63
2017-09-08T00:18:30.489Z,91.63
2017-09-08T00:19:11.030Z,92.3
2017-09-08T00:19:51.570Z,92.4
2017-09-08T00:20:32.102Z,92.58
2017-09-08T00:21:12.638Z,92.58
2017-09-08T00:21:53.166Z,92.3
2017-09-08T00:22:33.704Z,92.4
2017-09-08T00:23:14.314Z,92.4
2017-09-08T00:23:54.849Z,92.11
2017-09-08T00:24:35.390Z,92.3
2017-09-08T00:25:15.915Z,92.3
2017-09-08T00:25:56.482Z,92.3
2017-09-08T00:26:36.986Z,92.3
2017-09-08T00:27:17.514Z,92.11
2017-09-08T00:27:58.050Z,92.78
2017-09-08T00:28:38.582Z,92.4
2017-09-08T00:29:19.110Z,92.58
2017-09-08T00:29:59.635Z,92.4
2017-09-08T00:30:40.174Z,92.4
2017-09-08T00:31:20.710Z,92.49
2017-09-08T00:32:01.251Z,92.3
2017-09-08T00:32:41.771Z,92.68
2017-09-08T00:33:22.314Z,92.4
2017-09-08T00:34:02.870Z,92.87
2017-09-08T00:34:43.405Z,92.68
2017-09-08T00:35:23.937Z,92.78
2017-09-08T00:36:04.476Z,92.97
2017-09-08T00:36:45.011Z,93.26
2017-09-08T00:37:25.545Z,92.87
2017-09-08T00:38:06.068Z,93.07
2017-09-08T00:38:46.604Z,92.97
2017-09-08T00:39:27.145Z,93.07
2017-09-08T00:40:07.687Z,93.07
2017-09-08T00:40:48.222Z,92.78
2017-09-08T00:41:28.751Z,92.87
2017-09-08T00:42:09.279Z,92.78
2017-09-08T00:42:49.823Z,92.87
2017-09-08T00:43:30.358Z,92.87
2017-09-08T00:44:10.870Z,92.87
2017-09-08T00:44:51.415Z,92.4
2017-09-08T00:45:31.957Z,92.49
2017-09-08T00:46:12.482Z,92.87
2017-09-08T00:46:53.023Z,93.54
2017-09-08T00:47:33.563Z,93.45
2017-09-08T00:48:14.111Z,93.45
2017-09-08T00:48:54.649Z,93.54
2017-09-08T00:49:35.190Z,93.07
2017-09-08T00:50:15.729Z,93.26
2017-09-08T00:50:56.266Z,93.16
2017-09-08T00:51:36.801Z,93.35
2017-09-08T00:52:17.334Z,93.35
2017-09-08T00:52:57.871Z,93.45
2017-09-08T00:53:38.407Z,93.26
2017-09-08T00:54:18.946Z,93.26
2017-09-08T00:54:59.488Z,93.26
2017-09-08T00:55:40.021Z,93.26
2017-09-08T00:56:20.559Z,93.54
2017-09-08T00:57:01.087Z,93.26
2017-09-08T00:57:41.621Z,93.26
2017-09-08T00:58:22.169Z,93.26
2017-09-08T00:59:02.707Z,93.07
2017-09-08T00:59:43.240Z,93.26
2017-09-08T01:00:23.770Z,93.26
2017-09-08T01:01:04.308Z,93.45
2017-09-08T01:01:44.866Z,92.78
2017-09-08T01:02:25.374Z,92.58
2017-09-08T01:03:05.896Z,92.97
2017-09-08T01:03:46.431Z,92.87
2017-09-08T01:04:26.969Z,93.07
2017-09-08T01:05:07.503Z,92.97
2017-09-08T01:05:48.051Z,93.16
2017-09-08T01:06:28.579Z,93.26
2017-09-08T01:07:09.119Z,93.07
2017-09-08T01:07:49.663Z,92.97
2017-09-08T01:08:30.201Z,92.78
2017-09-08T01:09:10.737Z,93.07
2017-09-08T01:09:51.328Z,92.68
2017-09-08T01:10:31.867Z,92.68
2017-09-08T01:11:12.402Z,92.4
2017-09-08T01:11:52.930Z,92.49
2017-09-08T01:12:33.464Z,92.78
2017-09-08T01:13:14.038Z,92.58
2017-09-08T01:13:54.580Z,92.58
2017-09-08T01:14:35.110Z,92.68
2017-09-08T01:15:15.649Z,92.87
2017-09-08T01:15:56.185Z,92.4
2017-09-08T01:16:36.715Z,92.87
2017-09-08T01:17:17.249Z,92.78
2017-09-08T01:17:57.777Z,92.87
2017-09-08T01:18:38.335Z,92.78
2017-09-08T01:19:18.845Z,92.97
2017-09-08T01:19:59.382Z,92.97
2017-09-08T01:20:39.913Z,92.78
2017-09-08T01:21:20.432Z,92.87
2017-09-08T01:22:00.960Z,92.21
2017-09-08T01:22:41.497Z,92.01
2017-09-08T01:23:22.034Z,92.3
2017-09-08T01:24:02.569Z,92.3
2017-09-08T01:24:43.098Z,92.3
2017-09-08T01:25:23.632Z,92.01
2017-09-08T01:26:04.171Z,92.97
2017-09-08T01:26:44.710Z,92.87
2017-09-08T01:27:25.245Z,92.21
2017-09-08T01:28:05.781Z,92.73
2017-09-08T01:28:46.313Z,92.21
2017-09-08T01:29:26.855Z,92.97
2017-09-08T01:30:07.389Z,92.97
2017-09-08T01:30:47.933Z,92.4
2017-09-08T01:31:28.464Z,92.68
2017-09-08T01:32:08.999Z,92.68
2017-09-08T01:32:49.535Z,92.49
2017-09-08T01:33:30.072Z,92.58
2017-09-08T01:34:10.711Z,92.49
2017-09-08T01:34:51.244Z,92.49
2017-09-08T01:35:31.777Z,92.68
2017-09-08T01:36:12.311Z,92.49
2017-09-08T01:36:52.841Z,92.49
2017-09-08T01:37:33.388Z,92.49
2017-09-08T01:38:13.925Z,92.3
2017-09-08T01:38:54.459Z,92.58
2017-09-08T01:39:34.997Z,92.49
2017-09-08T01:40:15.533Z,92.87
2017-09-08T01:40:56.073Z,92.4
2017-09-08T01:41:36.610Z,92.3
2017-09-08T01:42:17.146Z,92.21
2017-09-08T01:42:57.682Z,92.11
2017-09-08T01:43:38.217Z,92.49
2017-09-08T01:44:18.749Z,91.86
2017-09-08T01:44:59.287Z,91.72
2017-09-08T01:45:39.826Z,92.01
2017-09-08T01:46:20.365Z,92.01
2017-09-08T01:47:00.893Z,92.01
2017-09-08T01:47:41.430Z,92.06
2017-09-08T01:48:21.961Z,92.11
2017-09-08T01:49:02.501Z,92.01
2017-09-08T01:49:43.032Z,92.35
2017-09-08T01:50:23.567Z,91.82
2017-09-08T01:51:04.104Z,92.01
2017-09-08T01:51:44.646Z,92.01
2017-09-08T01:52:25.185Z,92.21
2017-09-08T01:53:05.723Z,92.3
2017-09-08T01:53:46.258Z,91.82
2017-09-08T01:54:26.794Z,92.01
2017-09-08T01:55:07.335Z,92.11
2017-09-08T01:55:47.873Z,92.01
2017-09-08T01:56:28.415Z,92.3
2017-09-08T01:57:08.943Z,91.92
2017-09-08T01:57:49.490Z,91.72
2017-09-08T01:58:30.030Z,91.72
2017-09-08T01:59:10.564Z,92.3
2017-09-08T01:59:51.098Z,91.82
2017-09-08T02:00:31.640Z,92.58
2017-09-08T02:01:12.184Z,92.4
2017-09-08T02:01:52.722Z,92.58
2017-09-08T02:02:33.263Z,92.58
2017-09-08T02:03:13.793Z,92.3
2017-09-08T02:03:54.331Z,91.63
2017-09-08T02:04:34.868Z,92.4
2017-09-08T02:05:15.479Z,92.21
2017-09-08T02:05:56.000Z,92.4
2017-09-08T02:06:36.540Z,92.3
2017-09-08T02:07:17.080Z,92.21
2017-09-08T02:07:57.619Z,92.4
2017-09-08T02:08:38.150Z,92.3
2017-09-08T02:09:18.677Z,92.4
2017-09-08T02:09:59.214Z,92.4
2017-09-08T02:10:39.754Z,92.3
2017-09-08T02:11:20.294Z,92.3
2017-09-08T02:12:00.823Z,92.01
2017-09-08T02:12:41.359Z,92.87
2017-09-08T02:13:21.903Z,92.78
2017-09-08T02:14:02.441Z,92.78
2017-09-08T02:14:42.981Z,92.68
2017-09-08T02:15:23.523Z,92.78
2017-09-08T02:16:04.050Z,92.4
2017-09-08T02:16:44.597Z,92.4
2017-09-08T02:17:25.131Z,92.68
2017-09-08T02:18:05.667Z,92.87
2017-09-08T02:18:46.210Z,92.58
2017-09-08T02:19:26.748Z,92.49
2017-09-08T02:20:07.287Z,92.68
2017-09-08T02:20:47.819Z,92.68
2017-09-08T02:21:28.353Z,92.49
2017-09-08T02:22:08.885Z,92.4
2017-09-08T02:22:49.419Z,92.49
2017-09-08T02:23:29.961Z,92.3
2017-09-08T02:24:10.499Z,92.3
2017-09-08T02:24:51.041Z,92.68
2017-09-08T02:25:31.565Z,92.78
2017-09-08T02:26:12.104Z,92.49
2017-09-08T02:26:52.686Z,92.97
2017-09-08T02:27:33.221Z,92.87
2017-09-08T02:28:13.757Z,92.78
2017-09-08T02:28:54.289Z,92.87
2017-09-08T02:29:34.829Z,92.68
2017-09-08T02:30:15.368Z,92.49
2017-09-08T02:30:55.909Z,92.68
2017-09-08T02:31:36.450Z,92.49
2017-09-08T02:32:16.991Z,92.58
2017-09-08T02:32:57.517Z,92.49
2017-09-08T02:33:38.058Z,92.49
2017-09-08T02:34:18.592Z,92.58
2017-09-08T02:34:59.132Z,92.49
2017-09-08T02:35:39.672Z,92.68
2017-09-08T02:36:20.210Z,92.49
2017-09-08T02:37:00.746Z,92.49
2017-09-08T02:37:41.289Z,92.4
2017-09-08T02:38:21.827Z,92.68
2017-09-08T02:39:02.365Z,92.3
2017-09-08T02:39:42.906Z,92.49
2017-09-08T02:40:23.446Z,92.97
2017-09-08T02:41:03.987Z,92.49
2017-09-08T02:41:44.526Z,92.68
2017-09-08T02:42:25.062Z,92.58
2017-09-08T02:43:05.599Z,92.49
2017-09-08T02:43:46.139Z,92.49
2017-09-08T02:44:26.673Z,92.49
2017-09-08T02:45:07.214Z,92.49
2017-09-08T02:45:47.742Z,92.49
2017-09-08T02:46:28.282Z,92.4
2017-09-08T02:47:08.817Z,92.49
2017-09-08T02:47:49.354Z,92.4
2017-09-08T02:48:29.881Z,92.4
2017-09-08T02:49:10.423Z,92.49
2017-09-08T02:49:50.957Z,92.49
2017-09-08T02:50:31.501Z,92.3
2017-09-08T02:51:12.035Z,92.49
2017-09-08T02:51:52.575Z,92.49
2017-09-08T02:52:33.116Z,92.58
2017-09-08T02:53:13.655Z,92.49
2017-09-08T02:53:54.193Z,92.68
2017-09-08T02:54:34.723Z,92.68
2017-09-08T02:55:15.252Z,92.68
2017-09-08T02:55:55.790Z,92.58
2017-09-08T02:56:36.330Z,92.97
2017-09-08T02:57:16.867Z,92.58
2017-09-08T02:57:57.392Z,92.4
2017-09-08T02:58:37.935Z,92.78
2017-09-08T02:59:18.514Z,92.87
2017-09-08T02:59:59.045Z,92.49
2017-09-08T03:00:39.573Z,92.49
2017-09-08T03:01:20.120Z,92.4
2017-09-08T03:02:00.648Z,92.49
2017-09-08T03:02:41.182Z,92.78
2017-09-08T03:03:21.719Z,93.07
2017-09-08T03:04:02.260Z,93.07
2017-09-08T03:04:42.798Z,93.07
2017-09-08T03:05:23.326Z,92.87
2017-09-08T03:06:03.872Z,92.87
2017-09-08T03:06:44.415Z,92.87
2017-09-08T03:07:24.952Z,92.4
2017-09-08T03:08:05.501Z,92.49
2017-09-08T03:08:46.039Z,92.49
2017-09-08T03:09:26.575Z,92.49
2017-09-08T03:10:07.110Z,92.58
2017-09-08T03:10:47.631Z,92.49
2017-09-08T03:11:28.164Z,92.49
2017-09-08T03:12:08.705Z,92.49
2017-09-08T03:12:49.238Z,92.49
2017-09-08T03:13:29.776Z,92.58
2017-09-08T03:14:10.310Z,92.49
2017-09-08T03:14:50.841Z,92.49
2017-09-08T03:15:31.380Z,92.49
2017-09-08T03:16:11.917Z,92.4
2017-09-08T03:16:52.458Z,92.4
2017-09-08T03:17:32.995Z,92.49
2017-09-08T03:18:13.624Z,92.87
2017-09-08T03:18:54.137Z,92.68
2017-09-08T03:19:34.670Z,92.68
2017-09-08T03:20:15.214Z,92.68
2017-09-08T03:20:55.788Z,92.78
2017-09-08T03:21:36.323Z,92.68
2017-09-08T03:22:16.866Z,92.58
2017-09-08T03:22:57.398Z,92.78
2017-09-08T03:23:37.945Z,92.78
2017-09-08T03:24:18.483Z,92.87
2017-09-08T03:24:59.005Z,92.87
2017-09-08T03:25:39.541Z,92.78
2017-09-08T03:26:20.071Z,92.21
2017-09-08T03:27:00.605Z,92.68
2017-09-08T03:27:41.152Z,92.21
2017-09-08T03:28:21.690Z,92.21
2017-09-08T03:29:02.236Z,92.87
2017-09-08T03:29:42.776Z,92.97
2017-09-08T03:30:23.315Z,92.78
2017-09-08T03:31:03.861Z,92.78
2017-09-08T03:31:44.383Z,92.78
2017-09-08T03:32:24.941Z,92.4
2017-09-08T03:33:05.468Z,92.49
2017-09-08T03:33:46.006Z,92.68
2017-09-08T03:34:26.545Z,92.68
2017-09-08T03:35:07.080Z,92.49
2017-09-08T03:35:47.628Z,92.49
2017-09-08T03:36:28.139Z,92.78
2017-09-08T03:37:08.678Z,92.11
2017-09-08T03:37:49.218Z,92.21
2017-09-08T03:38:29.761Z,92.3
2017-09-08T03:39:10.300Z,92.3
2017-09-08T03:39:50.828Z,92.21
2017-09-08T03:40:31.371Z,92.58
2017-09-08T03:41:11.903Z,92.4
2017-09-08T03:41:52.434Z,92.4
2017-09-08T03:42:32.970Z,92.11
2017-09-08T03:43:13.511Z,92.58
2017-09-08T03:43:54.049Z,92.4
2017-09-08T03:44:34.580Z,91.82
2017-09-08T03:45:15.106Z,91.53
2017-09-08T03:45:55.646Z,91.82
2017-09-08T03:46:36.171Z,91.92
2017-09-08T03:47:16.698Z,91.82
2017-09-08T03:47:57.224Z,91.92
2017-09-08T03:48:37.822Z,92.01
2017-09-08T03:49:18.365Z,91.92
2017-09-08T03:49:58.905Z,91.82
2017-09-08T03:50:39.437Z,92.01
2017-09-08T03:51:19.963Z,91.82
2017-09-08T03:52:00.503Z,91.92
2017-09-08T03:52:42.889Z,91.53
2017-09-08T03:53:23.138Z,91.63
2017-09-08T03:54:03.664Z,91.72
2017-09-08T03:54:44.252Z,91.72
2017-09-08T03:55:24.846Z,91.63
2017-09-08T03:56:05.428Z,91.82
2017-09-08T03:56:45.935Z,91.82
2017-09-08T03:57:26.471Z,91.63
2017-09-08T03:58:07.007Z,92.01
2017-09-08T03:58:47.545Z,91.82
2017-09-08T03:59:28.093Z,91.82
2017-09-08T04:00:08.633Z,91.63
2017-09-08T04:00:49.158Z,91.63
2017-09-08T04:01:29.699Z,91.82
2017-09-08T04:02:10.215Z,91.72
2017-09-08T04:02:50.744Z,91.82
2017-09-08T04:03:31.273Z,91.82
2017-09-08T04:04:11.811Z,91.92
2017-09-08T04:04:52.344Z,91.63
2017-09-08T04:05:32.877Z,92.21
2017-09-08T04:06:13.414Z,91.63
2017-09-08T04:06:53.950Z,91.82
2017-09-08T04:07:34.492Z,92.01
2017-09-08T04:08:15.034Z,91.63
2017-09-08T04:08:55.573Z,91.63
2017-09-08T04:09:36.125Z,91.92
2017-09-08T04:10:16.663Z,91.63
2017-09-08T04:10:57.188Z,91.92
2017-09-08T04:11:37.752Z,91.53
2017-09-08T04:12:18.227Z,91.82
2017-09-08T04:12:58.730Z,91.82
2017-09-08T04:13:39.253Z,91.92
2017-09-08T04:14:19.810Z,91.63
2017-09-08T04:15:00.334Z,91.82
2017-09-08T04:15:40.861Z,91.53
2017-09-08T04:16:21.376Z,91.82
2017-09-08T04:17:01.901Z,91.53
2017-09-08T04:17:42.430Z,91.63
2017-09-08T04:18:22.960Z,91.63
2017-09-08T04:19:03.486Z,92.11
2017-09-08T04:19:43.994Z,91.63
2017-09-08T04:20:24.537Z,90.96
2017-09-08T04:21:05.064Z,91.34
2017-09-08T04:21:45.600Z,91.05
2017-09-08T04:22:26.105Z,91.25
2017-09-08T04:23:06.636Z,91.15
2017-09-08T04:23:47.171Z,91.25
2017-09-08T04:24:28.053Z,91.15
2017-09-08T04:25:08.616Z,91.05
2017-09-08T04:25:49.151Z,91.05
2017-09-08T04:26:29.683Z,91.34
2017-09-08T04:27:10.202Z,91.34
2017-09-08T04:27:50.723Z,91.44
2017-09-08T04:28:31.253Z,91.25
2017-09-08T04:29:11.816Z,91.25
2017-09-08T04:29:52.350Z,91.34
2017-09-08T04:30:32.884Z,90.77
2017-09-08T04:31:13.426Z,90.86
2017-09-08T04:31:53.961Z,90.86
2017-09-08T04:32:34.503Z,91.34
2017-09-08T04:33:15.042Z,91.34
2017-09-08T04:33:55.572Z,90.96
2017-09-08T04:34:36.107Z,91.05
2017-09-08T04:35:16.634Z,90.86
2017-09-08T04:35:57.167Z,91.05
2017-09-08T04:36:37.693Z,90.77
2017-09-08T04:37:18.234Z,91.05
2017-09-08T04:37:58.773Z,90.86
2017-09-08T04:38:39.311Z,91.05
2017-09-08T04:39:19.844Z,90.48
2017-09-08T04:40:00.433Z,90.96
2017-09-08T04:40:40.907Z,91.15
2017-09-08T04:41:21.428Z,90.29
2017-09-08T04:42:01.960Z,90.39
2017-09-08T04:42:42.509Z,90.96
2017-09-08T04:43:23.045Z,90.86
2017-09-08T04:44:03.601Z,90.48
2017-09-08T04:44:44.117Z,90.09
2017-09-08T04:45:24.621Z,90.48
2017-09-08T04:46:05.155Z,90.29
2017-09-08T04:46:45.685Z,90.39
2017-09-08T04:47:26.237Z,90.19
2017-09-08T04:48:06.774Z,90.48
2017-09-08T04:48:47.299Z,90.58
2017-09-08T04:49:27.771Z,90.67
2017-09-08T04:50:08.300Z,90.58
2017-09-08T04:50:48.811Z,90.77
2017-09-08T04:51:30.907Z,90.48
2017-09-08T04:52:11.494Z,90.48
2017-09-08T04:52:52.055Z,90.09
2017-09-08T04:53:32.572Z,90.29
2017-09-08T04:54:13.104Z,90.29
2017-09-08T04:54:54.526Z,90.48
2017-09-08T04:55:35.031Z,90.67
2017-09-08T04:56:15.588Z,90.19
2017-09-08T04:56:56.114Z,89.9
2017-09-08T04:57:36.999Z,90.19
2017-09-08T04:58:17.466Z,90
2017-09-08T04:58:58.008Z,90.39
2017-09-08T04:59:39.706Z,90.29
2017-09-08T05:00:20.228Z,90.19
2017-09-08T05:01:00.841Z,90.09
2017-09-08T05:01:41.408Z,90.29
2017-09-08T05:02:21.883Z,90.14
2017-09-08T05:03:02.489Z,90.19
2017-09-08T05:03:42.979Z,90.33
2017-09-08T05:04:23.687Z,89.43
2017-09-08T05:05:05.306Z,89.62
2017-09-08T05:05:45.900Z,89.43
2017-09-08T05:06:26.493Z,89.66
2017-09-08T05:07:07.236Z,89.72
2017-09-08T05:07:47.924Z,89.66
2017-09-08T05:08:28.491Z,89.76
2017-09-08T05:09:10.632Z,90.14
2017-09-08T05:09:51.111Z,89.86
2017-09-08T05:10:31.725Z,89.76
2017-09-08T05:11:12.275Z,89.37
2017-09-08T05:11:52.813Z,89.57
2017-09-08T05:12:33.339Z,89.86
2017-09-08T05:13:13.887Z,89.66
2017-09-08T05:13:54.413Z,89.47
2017-09-08T05:14:34.938Z,89.66
2017-09-08T05:15:15.475Z,89.86
2017-09-08T05:15:55.995Z,89.57
2017-09-08T05:16:36.532Z,89.47
2017-09-08T05:17:17.069Z,89.37
2017-09-08T05:17:57.610Z,89.66
2017-09-08T05:18:38.155Z,88.61
2017-09-08T05:19:18.682Z,89.66
2017-09-08T05:19:59.211Z,89.66
2017-09-08T05:20:39.748Z,89.66
2017-09-08T05:21:20.281Z,89.66
2017-09-08T05:22:00.826Z,88.7
2017-09-08T05:22:41.356Z,88.99
2017-09-08T05:23:21.861Z,88.61
2017-09-08T05:24:02.404Z,88.7
2017-09-08T05:24:42.923Z,88.7
2017-09-08T05:25:23.464Z,88.23
2017-09-08T05:26:03.983Z,88.8
2017-09-08T05:26:44.513Z,88.8
2017-09-08T05:27:25.038Z,89.18
2017-09-08T05:28:05.570Z,88.7
2017-09-08T05:28:46.079Z,89.37
2017-09-08T05:29:26.642Z,88.32
2017-09-08T05:30:07.220Z,88.32
2017-09-08T05:30:47.736Z,88.42
2017-09-08T05:31:28.274Z,89.18
2017-09-08T05:32:08.807Z,88.99
2017-09-08T05:32:49.337Z,88.8
2017-09-08T05:33:29.877Z,88.61
2017-09-08T05:34:10.409Z,88.99
2017-09-08T05:34:50.931Z,88.61
2017-09-08T05:35:31.462Z,88.61
2017-09-08T05:36:11.978Z,88.7
2017-09-08T05:36:52.547Z,89.28
2017-09-08T05:37:33.041Z,88.9
2017-09-08T05:38:13.576Z,88.9
2017-09-08T05:38:54.097Z,88.56
2017-09-08T05:39:34.610Z,88.9
2017-09-08T05:40:15.147Z,88.9
2017-09-08T05:40:55.667Z,89.04
2017-09-08T05:41:37.829Z,88.99
2017-09-08T05:42:18.373Z,89.47
2017-09-08T05:42:58.901Z,89.66
2017-09-08T05:43:39.439Z,89.23
2017-09-08T05:44:19.955Z,89.43
2017-09-08T05:45:00.487Z,89.33
2017-09-08T05:45:41.016Z,89.23
2017-09-08T05:46:21.546Z,89.33
2017-09-08T05:47:02.082Z,89.43
2017-09-08T05:47:42.605Z,89.43
2017-09-08T05:48:23.145Z,89.23
2017-09-08T05:49:03.681Z,89.43
2017-09-08T05:49:44.226Z,89.9
2017-09-08T05:50:24.751Z,89.57
2017-09-08T05:51:05.288Z,89.57
2017-09-08T05:51:45.816Z,89.62
2017-09-08T05:52:26.345Z,89.62
2017-09-08T05:53:06.880Z,89.72
2017-09-08T05:53:47.407Z,89.43
2017-09-08T05:54:27.937Z,89.72
2017-09-08T05:55:08.472Z,90.19
2017-09-08T05:55:49.010Z,89.57
2017-09-08T05:56:29.542Z,90.29
2017-09-08T05:57:10.076Z,89.43
2017-09-08T05:57:50.616Z,89.28
2017-09-08T05:58:31.149Z,89.37
2017-09-08T05:59:11.750Z,89.76
2017-09-08T05:59:52.269Z,89.76
2017-09-08T06:00:32.804Z,89.47
2017-09-08T06:01:13.349Z,90.48
2017-09-08T06:01:53.882Z,90.43
2017-09-08T06:02:34.406Z,90.43
2017-09-08T06:03:14.936Z,90.14
2017-09-08T06:03:55.502Z,90.14
2017-09-08T06:04:36.041Z,90.53
2017-09-08T06:05:16.584Z,90.14
2017-09-08T06:05:57.120Z,90.33
2017-09-08T06:06:37.653Z,90.14
2017-09-08T06:07:18.173Z,90.14
2017-09-08T06:07:58.733Z,90.14
2017-09-08T06:08:39.227Z,90.33
2017-09-08T06:09:19.745Z,90.14
2017-09-08T06:10:00.276Z,90.14
2017-09-08T06:10:40.803Z,90.33
2017-09-08T06:11:21.341Z,90.43
2017-09-08T06:12:01.850Z,90.14
2017-09-08T06:12:42.395Z,90.53
2017-09-08T06:13:22.927Z,90.33
2017-09-08T06:14:03.462Z,90.43
2017-09-08T06:14:44.002Z,90.43
2017-09-08T06:15:24.545Z,90.91
2017-09-08T06:16:05.086Z,90.91
2017-09-08T06:16:45.622Z,90.91
2017-09-08T06:17:26.156Z,90.91
2017-09-08T06:18:06.695Z,90.62
2017-09-08T06:18:47.229Z,91.39
2017-09-08T06:19:27.771Z,90.72
2017-09-08T06:20:08.298Z,90.72
2017-09-08T06:20:48.840Z,91.1
2017-09-08T06:21:29.373Z,91.29
2017-09-08T06:22:09.903Z,91.39
2017-09-08T06:22:50.434Z,91.29
2017-09-08T06:23:30.976Z,91
2017-09-08T06:24:11.499Z,90.81
2017-09-08T06:24:52.025Z,90.91
2017-09-08T06:25:32.573Z,91.19
2017-09-08T06:26:13.108Z,91.34
2017-09-08T06:26:53.636Z,90.91
2017-09-08T06:27:34.170Z,91.19
2017-09-08T06:28:14.703Z,90.62
2017-09-08T06:28:55.222Z,90.62
2017-09-08T06:29:35.766Z,90.72
2017-09-08T06:30:16.291Z,90.62
2017-09-08T06:30:56.824Z,90.81
2017-09-08T06:31:37.367Z,90.81
2017-09-08T06:32:17.895Z,90.33
2017-09-08T06:32:58.425Z,90.14
2017-09-08T06:33:38.943Z,90.33
2017-09-08T06:34:19.477Z,90.43
2017-09-08T06:35:00.014Z,90.33
2017-09-08T06:35:40.557Z,90.43
2017-09-08T06:36:21.100Z,90.43
2017-09-08T06:37:01.617Z,90.43
2017-09-08T06:37:42.209Z,90.72
2017-09-08T06:38:22.749Z,90.62
2017-09-08T06:39:03.292Z,90.62
2017-09-08T06:39:43.822Z,90.62
2017-09-08T06:40:24.350Z,90.53
2017-09-08T06:41:04.874Z,90.33
2017-09-08T06:41:45.402Z,89.76
2017-09-08T06:42:25.944Z,90.14
2017-09-08T06:43:06.476Z,89.86
2017-09-08T06:43:46.997Z,90.62
2017-09-08T06:44:27.528Z,90.53
2017-09-08T06:45:08.066Z,90.53
2017-09-08T06:45:48.621Z,90.43
2017-09-08T06:46:29.146Z,90.33
2017-09-08T06:47:09.672Z,90.33
2017-09-08T06:47:50.200Z,90.43
2017-09-08T06:48:30.740Z,90.53
2017-09-08T06:49:11.268Z,90.43
2017-09-08T06:49:51.795Z,90.72
2017-09-08T06:50:32.310Z,90.43
2017-09-08T06:51:12.839Z,89.86
2017-09-08T06:51:53.382Z,90.05
2017-09-08T06:52:33.919Z,90.33
2017-09-08T06:53:14.440Z,89.76
2017-09-08T06:53:54.973Z,89.47
2017-09-08T06:54:35.516Z,89.47
2017-09-08T06:55:16.080Z,89.47
2017-09-08T06:55:56.586Z,89.47
2017-09-08T06:56:37.121Z,89.47
2017-09-08T06:57:17.641Z,90.05
2017-09-08T06:57:58.173Z,90.05
2017-09-08T06:58:38.695Z,89.57
2017-09-08T06:59:19.235Z,89.57
2017-09-08T06:59:59.772Z,89.86
2017-09-08T07:00:40.314Z,89.86
2017-09-08T07:01:20.876Z,90.53
2017-09-08T07:02:01.419Z,90.43
2017-09-08T07:02:41.950Z,90.33
2017-09-08T07:03:22.485Z,90.43
2017-09-08T07:04:03.014Z,90.05
2017-09-08T07:04:43.568Z,90.43
2017-09-08T07:05:24.093Z,90.62
2017-09-08T07:06:04.632Z,90.72
2017-09-08T07:06:45.175Z,90.33
2017-09-08T07:07:25.708Z,90.43
2017-09-08T07:08:06.230Z,90.14
2017-09-08T07:08:46.755Z,90.23
2017-09-08T07:09:27.287Z,90.33
2017-09-08T07:10:07.831Z,90.14
2017-09-08T07:10:48.371Z,90.43
2017-09-08T07:11:28.908Z,90.23
2017-09-08T07:12:09.439Z,90.53
2017-09-08T07:12:49.985Z,90.14
2017-09-08T07:13:30.507Z,89.66
2017-09-08T07:14:11.050Z,89.66
2017-09-08T07:14:51.587Z,89.76
2017-09-08T07:15:32.116Z,90.05
2017-09-08T07:16:12.649Z,89.57
2017-09-08T07:16:53.176Z,89.57
2017-09-08T07:17:33.705Z,89.37
2017-09-08T07:18:14.239Z,89.47
2017-09-08T07:18:54.771Z,89.47
2017-09-08T07:19:35.292Z,89.57
2017-09-08T07:20:15.826Z,89.47
2017-09-08T07:20:56.358Z,89.47
2017-09-08T07:21:36.896Z,89.47
2017-09-08T07:22:17.432Z,89.47
2017-09-08T07:22:57.967Z,89.57
2017-09-08T07:23:38.504Z,89.57
2017-09-08T07:24:19.028Z,88.99
2017-09-08T07:24:59.563Z,89.18
2017-09-08T07:25:40.097Z,89.18
2017-09-08T07:26:20.625Z,88.99
2017-09-08T07:27:01.155Z,89.09
2017-09-08T07:27:41.697Z,89.66
2017-09-08T07:28:22.219Z,89.76
2017-09-08T07:29:02.757Z,89.76
2017-09-08T07:29:43.294Z,89.37
2017-09-08T07:30:23.833Z,89.47
2017-09-08T07:31:04.353Z,89.57
2017-09-08T07:31:44.887Z,89.37
2017-09-08T07:32:25.422Z,89.37
2017-09-08T07:33:05.962Z,89.47
2017-09-08T07:33:46.492Z,89.28
2017-09-08T07:34:27.030Z,89.47
2017-09-08T07:35:07.560Z,89.57
2017-09-08T07:35:48.094Z,89.37
2017-09-08T07:36:28.621Z,90.05
2017-09-08T07:37:09.165Z,89.95
2017-09-08T07:37:49.689Z,89.76
2017-09-08T07:38:30.234Z,89.86
2017-09-08T07:39:10.770Z,90.05
2017-09-08T07:39:51.320Z,90.05
2017-09-08T07:40:31.843Z,89.86
2017-09-08T07:41:12.373Z,89.95
2017-09-08T07:41:52.892Z,90.05
2017-09-08T07:42:33.425Z,90.05
2017-09-08T07:43:13.953Z,90.05
2017-09-08T07:43:54.494Z,89.95
2017-09-08T07:44:35.044Z,89.95
2017-09-08T07:45:15.573Z,90.14
2017-09-08T07:45:56.114Z,89.95
2017-09-08T07:46:36.650Z,89.76
2017-09-08T07:47:17.183Z,89.76
2017-09-08T07:47:57.724Z,89.76
2017-09-08T07:48:38.265Z,89.66
2017-09-08T07:49:18.786Z,89.76
2017-09-08T07:49:59.321Z,89.47
2017-09-08T07:50:39.867Z,90.05
2017-09-08T07:51:20.397Z,89.57
2017-09-08T07:52:00.920Z,89.76
2017-09-08T07:52:41.457Z,90.05
2017-09-08T07:53:21.989Z,89.95
2017-09-08T07:54:02.517Z,89.57
2017-09-08T07:54:43.045Z,89.28
2017-09-08T07:55:23.582Z,89.47
2017-09-08T07:56:04.113Z,89.47
2017-09-08T07:56:44.652Z,89.47
2017-09-08T07:57:25.179Z,89.37
2017-09-08T07:58:05.715Z,89.13
2017-09-08T07:58:46.275Z,88.94
2017-09-08T07:59:26.835Z,89.71
2017-09-08T08:00:07.366Z,89.51
2017-09-08T08:00:47.910Z,89.51
2017-09-08T08:01:28.455Z,89.13
2017-09-08T08:02:08.985Z,89.71
2017-09-08T08:02:49.518Z,89.61
2017-09-08T08:03:30.050Z,89.04
2017-09-08T08:04:10.582Z,89.04
2017-09-08T08:04:51.127Z,89.04
2017-09-08T08:05:31.662Z,89.61
2017-09-08T08:06:12.190Z,89.71
2017-09-08T08:06:52.733Z,89.51
2017-09-08T08:07:33.261Z,89.61
2017-09-08T08:08:13.798Z,89.61
2017-09-08T08:08:54.319Z,88.94
2017-09-08T08:09:34.864Z,88.94
2017-09-08T08:10:15.393Z,88.65
2017-09-08T08:10:55.922Z,89.37
2017-09-08T08:11:36.458Z,89.32
2017-09-08T08:12:16.984Z,89.57
2017-09-08T08:12:57.531Z,89.51
2017-09-08T08:13:38.083Z,89.23
2017-09-08T08:14:18.622Z,88.94
2017-09-08T08:14:59.163Z,89.71
2017-09-08T08:15:39.708Z,89.51
2017-09-08T08:16:20.252Z,89.71
2017-09-08T08:17:00.777Z,89.51
2017-09-08T08:17:41.307Z,89.04
2017-09-08T08:18:21.839Z,89.28
2017-09-08T08:19:02.375Z,89.13
2017-09-08T08:19:42.915Z,89.09
2017-09-08T08:20:23.443Z,89.13
2017-09-08T08:21:03.974Z,89.13
2017-09-08T08:21:44.509Z,89.04
2017-09-08T08:22:25.046Z,89.23
2017-09-08T08:23:05.583Z,89.32
2017-09-08T08:23:46.117Z,88.84
2017-09-08T08:24:26.650Z,88.94
2017-09-08T08:25:07.178Z,88.94
2017-09-08T08:25:47.710Z,89.23
2017-09-08T08:26:28.228Z,88.65
2017-09-08T08:27:08.774Z,89.23
2017-09-08T08:27:49.311Z,88.75
2017-09-08T08:28:29.850Z,88.75
2017-09-08T08:29:10.383Z,88.75
2017-09-08T08:29:50.914Z,88.84
2017-09-08T08:30:31.439Z,88.75
2017-09-08T08:31:11.983Z,88.65
2017-09-08T08:31:52.543Z,88.56
2017-09-08T08:32:33.082Z,88.37
2017-09-08T08:33:13.623Z,88.56
2017-09-08T08:33:54.139Z,88.84
2017-09-08T08:34:34.670Z,88.94
2017-09-08T08:35:15.211Z,88.46
2017-09-08T08:35:55.748Z,88.27
2017-09-08T08:36:36.277Z,88.46
2017-09-08T08:37:16.810Z,88.27
2017-09-08T08:37:57.352Z,88.56
2017-09-08T08:38:37.887Z,88.17
2017-09-08T08:39:18.424Z,88.37
2017-09-08T08:39:58.968Z,88.65
2017-09-08T08:40:39.492Z,88.46
2017-09-08T08:41:20.018Z,88.46
2017-09-08T08:42:00.579Z,88.56
2017-09-08T08:42:41.116Z,88.17
2017-09-08T08:43:21.626Z,88.65
2017-09-08T08:44:02.172Z,88.56